createdAt,value
2023-01-30T00:00:30.087Z,2.40
2023-01-30T00:01:33.894Z,2.40
2023-01-30T00:02:35.886Z,2.40
2023-01-30T00:03:37.834Z,2.30
2023-01-30T00:04:39.901Z,2.30
2023-01-30T00:05:41.872Z,2.30
2023-01-30T00:06:43.921Z,2.30
2023-01-30T00:07:47.553Z,2.30
2023-01-30T00:08:49.542Z,2.40
2023-01-30T00:09:51.479Z,2.40
2023-01-30T00:10:53.416Z,2.50
2023-01-30T00:11:55.422Z,2.50
2023-01-30T00:12:57.438Z,2.60
2023-01-30T00:14:01.467Z,2.60
2023-01-30T00:15:03.589Z,2.70
2023-01-30T00:16:06.131Z,2.60
2023-01-30T00:17:08.116Z,2.70
2023-01-30T00:18:10.319Z,2.60
2023-01-30T00:19:12.288Z,2.70
2023-01-30T00:20:15.728Z,2.60
2023-01-30T00:21:19.731Z,2.60
2023-01-30T00:22:21.761Z,2.60
2023-01-30T00:23:23.702Z,2.60
2023-01-30T00:24:25.879Z,2.60
2023-01-30T00:25:28.689Z,2.60
2023-01-30T00:26:30.709Z,2.60
2023-01-30T00:27:32.750Z,2.60
2023-01-30T00:28:34.815Z,2.50
2023-01-30T00:29:36.785Z,2.50
2023-01-30T00:30:38.752Z,2.50
2023-01-30T00:31:40.781Z,2.40
2023-01-30T00:32:42.776Z,2.40
2023-01-30T00:33:44.744Z,2.30
2023-01-30T00:34:46.673Z,2.30
2023-01-30T00:35:51.233Z,2.30
2023-01-30T00:37:07.113Z,2.30
2023-01-30T00:38:10.372Z,2.30
2023-01-30T00:39:12.285Z,2.20
2023-01-30T00:40:14.432Z,2.20
2023-01-30T00:41:17.345Z,2.20
2023-01-30T00:42:37.861Z,2.20
2023-01-30T00:43:58.915Z,2.10
2023-01-30T00:45:19.636Z,2.20
2023-01-30T00:46:49.618Z,2.20
2023-01-30T00:47:51.650Z,2.10
2023-01-30T00:48:53.996Z,2.10
2023-01-30T00:49:56.156Z,2.10
2023-01-30T00:50:58.428Z,2.10
2023-01-30T00:52:00.449Z,2.10
2023-01-30T00:53:02.363Z,2.10
2023-01-30T00:54:04.512Z,2.10
2023-01-30T00:55:07.704Z,2.10
2023-01-30T00:56:09.672Z,2.10
2023-01-30T00:57:11.646Z,2.10
2023-01-30T00:58:14.139Z,2.10
2023-01-30T00:59:16.136Z,2.10
2023-01-30T01:00:18.348Z,2.10
2023-01-30T01:01:20.322Z,2.00
2023-01-30T01:02:22.396Z,2.00
2023-01-30T01:03:24.373Z,1.90
2023-01-30T01:04:26.496Z,1.90
2023-01-30T01:05:29.017Z,1.90
2023-01-30T01:06:31.058Z,1.90
2023-01-30T01:07:33.027Z,1.90
2023-01-30T01:08:35.009Z,1.90
2023-01-30T01:09:37.202Z,1.90
2023-01-30T01:10:39.753Z,1.80
2023-01-30T01:11:41.738Z,1.80
2023-01-30T01:12:44.820Z,1.80
2023-01-30T01:13:47.878Z,1.80
2023-01-30T01:14:50.905Z,1.80
2023-01-30T01:16:00.571Z,1.80
2023-01-30T01:17:02.644Z,1.80
2023-01-30T01:18:04.679Z,1.80
2023-01-30T01:19:06.661Z,1.80
2023-01-30T01:20:09.739Z,1.80
2023-01-30T01:21:11.827Z,1.80
2023-01-30T01:22:13.778Z,1.80
2023-01-30T01:23:16.316Z,1.80
2023-01-30T01:24:18.326Z,1.70
2023-01-30T01:25:21.813Z,1.60
2023-01-30T01:26:24.203Z,1.60
2023-01-30T01:27:29.984Z,1.60
2023-01-30T01:28:32.137Z,1.60
2023-01-30T01:29:34.088Z,1.60
2023-01-30T01:30:36.113Z,1.60
2023-01-30T01:31:38.179Z,1.60
2023-01-30T01:32:40.179Z,1.50
2023-01-30T01:33:44.736Z,1.50
2023-01-30T01:34:46.678Z,1.50
2023-01-30T01:35:48.621Z,1.50
2023-01-30T01:36:53.913Z,1.50
2023-01-30T01:37:56.505Z,1.50
2023-01-30T01:38:58.766Z,1.50
2023-01-30T01:40:19.143Z,1.50
2023-01-30T01:41:21.137Z,1.50
2023-01-30T01:42:25.762Z,1.40
2023-01-30T01:43:39.287Z,1.40
2023-01-30T01:45:03.897Z,1.30
2023-01-30T01:46:22.467Z,1.30
2023-01-30T01:47:24.787Z,1.20
2023-01-30T01:48:35.057Z,1.20
2023-01-30T01:49:37.572Z,1.20
2023-01-30T01:50:54.632Z,1.20
2023-01-30T01:52:04.064Z,1.20
2023-01-30T01:53:07.724Z,1.30
2023-01-30T01:54:18.016Z,1.30
2023-01-30T01:55:21.464Z,1.20
2023-01-30T01:56:23.875Z,1.20
2023-01-30T01:57:33.728Z,1.20
2023-01-30T01:58:40.850Z,1.20
2023-01-30T01:59:53.282Z,1.20
2023-01-30T02:00:58.682Z,1.20
2023-01-30T03:17:28.133Z,0.90
2023-01-30T03:18:30.594Z,0.90
2023-01-30T03:19:32.911Z,0.90
2023-01-30T03:20:40.342Z,0.90
2023-01-30T03:21:44.927Z,0.80
2023-01-30T03:22:47.855Z,0.80
2023-01-30T03:23:50.100Z,0.90
2023-01-30T03:24:54.399Z,0.90
2023-01-30T03:25:57.133Z,0.90
2023-01-30T03:27:05.789Z,0.90
2023-01-30T03:28:09.077Z,1.00
2023-01-30T03:29:11.035Z,1.00
2023-01-30T03:30:13.800Z,1.00
2023-01-30T03:31:16.931Z,1.00
2023-01-30T03:32:19.098Z,1.00
2023-01-30T03:33:21.304Z,1.00
2023-01-30T03:34:24.104Z,0.90
2023-01-30T03:35:35.834Z,0.90
2023-01-30T03:36:38.253Z,0.90
2023-01-30T03:37:40.530Z,0.80
2023-01-30T03:38:42.700Z,0.80
2023-01-30T03:39:45.798Z,0.80
2023-01-30T03:40:50.563Z,0.80
2023-01-30T03:41:54.339Z,0.80
2023-01-30T03:42:57.251Z,0.80
2023-01-30T03:43:59.487Z,0.80
2023-01-30T03:45:08.527Z,0.80
2023-01-30T03:46:10.610Z,0.80
2023-01-30T03:47:17.100Z,0.80
2023-01-30T03:48:19.268Z,0.80
2023-01-30T03:49:21.612Z,0.80
2023-01-30T03:50:29.800Z,0.80
2023-01-30T03:51:32.018Z,0.80
2023-01-30T03:52:38.469Z,0.80
2023-01-30T03:53:44.734Z,0.80
2023-01-30T03:54:57.586Z,0.80
2023-01-30T03:55:59.868Z,0.80
2023-01-30T03:57:06.099Z,0.80
2023-01-30T03:58:23.953Z,0.80
2023-01-30T03:59:26.073Z,0.80
2023-01-30T04:00:36.164Z,0.80
2023-01-30T04:01:39.072Z,0.80
2023-01-30T04:02:41.402Z,0.90
2023-01-30T04:03:52.304Z,0.90
2023-01-30T04:04:55.080Z,0.90
2023-01-30T04:07:14.139Z,0.90
2023-01-30T04:08:17.098Z,0.90
2023-01-30T04:09:19.175Z,0.80
2023-01-30T04:10:23.695Z,0.80
2023-01-30T04:11:25.677Z,0.80
2023-01-30T04:12:27.864Z,0.80
2023-01-30T04:13:50.261Z,0.80
2023-01-30T04:15:20.307Z,0.80
2023-01-30T04:17:19.055Z,0.80
2023-01-30T04:18:21.252Z,0.80
2023-01-30T04:19:35.998Z,0.80
2023-01-30T04:20:38.812Z,0.70
2023-01-30T04:21:46.899Z,0.70
2023-01-30T04:22:48.926Z,0.70
2023-01-30T04:23:51.740Z,0.70
2023-01-30T04:24:53.802Z,0.70
2023-01-30T04:25:55.900Z,0.70
2023-01-30T04:27:00.057Z,0.70
2023-01-30T04:28:02.331Z,0.70
2023-01-30T04:29:09.450Z,0.60
2023-01-30T04:30:13.169Z,0.70
2023-01-30T04:31:15.918Z,0.70
2023-01-30T04:32:27.314Z,0.60
2023-01-30T04:33:29.378Z,0.60
2023-01-30T04:34:31.833Z,0.60
2023-01-30T04:35:33.866Z,0.60
2023-01-30T04:36:37.066Z,0.60
2023-01-30T04:37:39.510Z,0.60
2023-01-30T04:38:44.993Z,0.60
2023-01-30T04:39:53.372Z,0.60
2023-01-30T04:40:56.910Z,0.60
2023-01-30T04:42:00.718Z,0.60
2023-01-30T04:43:02.901Z,0.60
2023-01-30T04:44:10.721Z,0.60
2023-01-30T04:45:32.914Z,0.60
2023-01-30T04:46:35.813Z,0.60
2023-01-30T04:47:38.451Z,0.60
2023-01-30T04:48:40.564Z,0.60
2023-01-30T04:49:42.547Z,0.60
2023-01-30T04:50:48.683Z,0.60
2023-01-30T04:51:50.778Z,0.60
2023-01-30T04:52:52.752Z,0.60
2023-01-30T04:53:54.753Z,0.60
2023-01-30T04:54:56.704Z,0.60
2023-01-30T04:55:58.755Z,0.60
2023-01-30T04:57:01.631Z,0.60
2023-01-30T04:58:04.113Z,0.60
2023-01-30T04:59:07.116Z,0.60
2023-01-30T05:00:14.598Z,0.60
2023-01-30T05:01:35.804Z,0.60
2023-01-30T05:02:38.015Z,0.60
2023-01-30T05:03:40.008Z,0.60
2023-01-30T05:04:41.978Z,0.60
2023-01-30T05:05:47.578Z,0.70
2023-01-30T05:06:49.775Z,0.60
2023-01-30T05:07:53.243Z,0.70
2023-01-30T05:08:57.007Z,0.70
2023-01-30T05:09:58.991Z,0.60
2023-01-30T05:11:01.042Z,0.60
2023-01-30T05:12:03.068Z,0.70
2023-01-30T05:13:06.363Z,0.70
2023-01-30T05:14:08.372Z,0.60
2023-01-30T05:15:11.389Z,0.60
2023-01-30T05:16:14.845Z,0.70
2023-01-30T05:17:17.078Z,0.70
2023-01-30T05:18:19.053Z,0.70
2023-01-30T05:19:21.006Z,0.60
2023-01-30T05:20:23.476Z,0.60
2023-01-30T05:21:28.594Z,0.70
2023-01-30T05:22:30.614Z,0.70
2023-01-30T05:23:32.696Z,0.70
2023-01-30T05:24:34.640Z,0.60
2023-01-30T05:25:36.611Z,0.60
2023-01-30T05:26:40.342Z,0.60
2023-01-30T05:27:42.394Z,0.60
2023-01-30T05:28:44.367Z,0.60
2023-01-30T05:29:46.314Z,0.60
2023-01-30T05:30:48.398Z,0.50
2023-01-30T05:31:50.416Z,0.60
2023-01-30T05:32:52.408Z,0.60
2023-01-30T05:33:54.479Z,0.50
2023-01-30T05:34:56.517Z,0.50
2023-01-30T05:35:59.206Z,0.50
2023-01-30T05:37:01.210Z,0.50
2023-01-30T05:38:03.640Z,0.50
2023-01-30T05:39:05.681Z,0.50
2023-01-30T05:40:11.611Z,0.60
2023-01-30T05:41:16.095Z,0.60
2023-01-30T05:42:18.319Z,0.60
2023-01-30T05:43:20.268Z,0.60
2023-01-30T05:44:22.266Z,0.60
2023-01-30T05:45:24.370Z,0.60
2023-01-30T05:46:26.344Z,0.60
2023-01-30T05:47:28.474Z,0.60
2023-01-30T05:48:30.826Z,0.60
2023-01-30T05:49:32.787Z,0.60
2023-01-30T05:50:34.829Z,0.60
2023-01-30T05:51:36.786Z,0.60
2023-01-30T05:52:38.758Z,0.60
2023-01-30T05:53:40.802Z,0.60
2023-01-30T05:54:42.903Z,0.60
2023-01-30T05:55:44.894Z,0.60
2023-01-30T05:56:50.590Z,0.60
2023-01-30T05:57:52.498Z,0.60
2023-01-30T05:58:56.234Z,0.50
2023-01-30T05:59:58.166Z,0.50
2023-01-30T06:01:05.230Z,0.50
2023-01-30T06:02:07.211Z,0.50
2023-01-30T06:03:09.224Z,0.40
2023-01-30T06:04:11.235Z,0.40
2023-01-30T06:05:13.248Z,0.30
2023-01-30T06:06:15.711Z,0.30
2023-01-30T06:07:17.707Z,0.20
2023-01-30T06:08:19.701Z,0.30
2023-01-30T06:09:21.645Z,0.30
2023-01-30T06:10:23.541Z,0.30
2023-01-30T06:11:25.803Z,0.30
2023-01-30T06:12:27.919Z,0.30
2023-01-30T06:13:29.980Z,0.40
2023-01-30T06:14:31.946Z,0.30
2023-01-30T06:15:33.971Z,0.30
2023-01-30T06:16:36.017Z,0.30
2023-01-30T06:17:42.067Z,0.30
2023-01-30T06:18:47.187Z,0.40
2023-01-30T06:19:49.134Z,0.40
2023-01-30T06:20:52.199Z,0.40
2023-01-30T06:21:54.184Z,0.50
2023-01-30T06:22:56.115Z,0.60
2023-01-30T06:23:58.058Z,0.60
2023-01-30T06:25:00.052Z,0.60
2023-01-30T06:26:04.639Z,0.60
2023-01-30T06:27:35.963Z,0.60
2023-01-30T06:28:38.187Z,0.60
2023-01-30T06:29:40.296Z,0.60
2023-01-30T06:30:42.641Z,0.60
2023-01-30T06:31:44.688Z,0.60
2023-01-30T06:33:08.770Z,0.60
2023-01-30T06:34:12.170Z,0.60
2023-01-30T06:35:14.484Z,0.60
2023-01-30T06:36:16.442Z,0.60
2023-01-30T06:37:51.058Z,0.50
2023-01-30T06:38:53.041Z,0.50
2023-01-30T06:39:55.057Z,0.50
2023-01-30T06:40:57.021Z,0.50
2023-01-30T06:41:58.935Z,0.60
2023-01-30T06:43:00.868Z,0.50
2023-01-30T06:44:02.901Z,0.50
2023-01-30T06:45:05.567Z,0.50
2023-01-30T06:46:45.756Z,0.50
2023-01-30T06:47:51.973Z,0.50
2023-01-30T06:48:54.026Z,0.50
2023-01-30T06:49:55.973Z,0.50
2023-01-30T06:51:32.541Z,0.60
2023-01-30T06:52:34.545Z,0.60
2023-01-30T06:53:37.296Z,0.60
2023-01-30T06:54:39.275Z,0.60
2023-01-30T06:55:47.292Z,0.70
2023-01-30T06:56:49.326Z,0.60
2023-01-30T06:58:01.803Z,0.70
2023-01-30T06:59:03.825Z,0.70
2023-01-30T07:00:21.321Z,0.70
2023-01-30T07:01:23.326Z,0.70
2023-01-30T07:02:25.335Z,0.80
2023-01-30T07:03:27.429Z,0.80
2023-01-30T07:04:29.420Z,0.80
2023-01-30T07:05:31.880Z,0.90
2023-01-30T07:06:33.963Z,0.90
2023-01-30T07:07:36.362Z,0.90
2023-01-30T07:08:38.384Z,1.00
2023-01-30T07:09:40.387Z,1.00
2023-01-30T07:10:43.221Z,1.10
2023-01-30T07:11:47.197Z,1.10
2023-01-30T07:12:49.355Z,1.10
2023-01-30T07:13:51.630Z,1.20
2023-01-30T07:14:54.561Z,1.20
2023-01-30T07:15:56.618Z,1.30
2023-01-30T07:16:58.575Z,1.30
2023-01-30T07:18:00.880Z,1.30
2023-01-30T07:19:02.918Z,1.30
2023-01-30T07:20:05.150Z,1.30
2023-01-30T07:21:07.124Z,1.40
2023-01-30T07:22:09.101Z,1.40
2023-01-30T07:23:11.058Z,1.50
2023-01-30T07:24:13.255Z,1.50
2023-01-30T07:25:15.250Z,1.50
2023-01-30T07:26:17.412Z,1.50
2023-01-30T07:27:19.434Z,1.60
2023-01-30T07:28:21.661Z,1.60
2023-01-30T07:29:23.604Z,1.70
2023-01-30T07:30:27.327Z,1.70
2023-01-30T07:31:29.366Z,1.80
2023-01-30T07:32:31.476Z,1.90
2023-01-30T07:33:33.392Z,1.90
2023-01-30T07:34:35.494Z,2.00
2023-01-30T07:35:38.234Z,2.10
2023-01-30T07:36:40.175Z,2.10
2023-01-30T07:37:44.731Z,2.20
2023-01-30T07:38:49.467Z,2.20
2023-01-30T07:39:51.654Z,2.30
2023-01-30T07:40:53.653Z,2.30
2023-01-30T07:41:56.997Z,2.40
2023-01-30T07:43:08.866Z,2.40
2023-01-30T07:44:10.861Z,2.40
2023-01-30T07:45:12.940Z,2.40
2023-01-30T07:46:14.947Z,2.50
2023-01-30T07:47:19.385Z,2.40
2023-01-30T07:48:21.455Z,2.50
2023-01-30T07:49:23.461Z,2.50
2023-01-30T07:50:25.532Z,2.50
2023-01-30T07:51:27.859Z,2.50
2023-01-30T07:52:29.832Z,2.60
2023-01-30T07:53:32.018Z,2.60
2023-01-30T07:54:34.036Z,2.60
2023-01-30T07:55:36.223Z,2.60
2023-01-30T07:56:38.241Z,2.60
2023-01-30T07:57:41.185Z,2.60
2023-01-30T07:58:43.337Z,2.60
2023-01-30T07:59:45.386Z,2.60
2023-01-30T08:00:47.484Z,2.60
2023-01-30T08:01:49.487Z,2.60
2023-01-30T08:02:51.541Z,2.60
2023-01-30T08:03:53.791Z,2.70
2023-01-30T08:04:55.776Z,2.70
2023-01-30T08:05:57.790Z,2.80
2023-01-30T08:06:59.792Z,2.80
2023-01-30T08:08:01.792Z,2.90
2023-01-30T08:09:03.875Z,3.00
2023-01-30T08:10:06.614Z,3.00
2023-01-30T08:11:09.220Z,3.10
2023-01-30T08:12:11.241Z,3.20
2023-01-30T08:13:13.208Z,3.20
2023-01-30T08:14:15.189Z,3.30
2023-01-30T08:15:17.382Z,3.30
2023-01-30T08:16:19.504Z,3.50
2023-01-30T08:17:21.515Z,3.60
2023-01-30T08:18:23.546Z,3.60
2023-01-30T08:19:25.540Z,3.70
2023-01-30T08:20:28.505Z,3.80
2023-01-30T08:21:30.504Z,4.10
2023-01-30T08:22:32.659Z,4.40
2023-01-30T08:23:34.956Z,4.80
2023-01-30T08:24:36.995Z,5.10
2023-01-30T08:25:39.009Z,5.40
2023-01-30T08:26:40.968Z,5.80
2023-01-30T08:27:42.967Z,6.00
2023-01-30T08:28:44.953Z,6.30
2023-01-30T08:29:46.920Z,6.50
2023-01-30T08:30:49.319Z,6.70
2023-01-30T08:31:51.393Z,6.90
2023-01-30T08:32:53.579Z,7.10
2023-01-30T08:33:55.582Z,7.30
2023-01-30T08:34:57.530Z,7.50
2023-01-30T08:35:59.483Z,7.60
2023-01-30T08:37:01.677Z,7.80
2023-01-30T08:38:07.290Z,8.00
2023-01-30T08:39:09.291Z,8.30
2023-01-30T08:40:11.953Z,8.40
2023-01-30T08:41:13.975Z,8.60
2023-01-30T08:42:15.913Z,8.90
2023-01-30T08:43:18.009Z,9.10
2023-01-30T08:44:19.990Z,9.20
2023-01-30T08:45:21.969Z,9.40
2023-01-30T08:46:24.065Z,9.60
2023-01-30T08:47:26.064Z,9.70
2023-01-30T08:48:29.866Z,9.80
2023-01-30T08:49:33.901Z,10.00
2023-01-30T08:50:39.104Z,10.10
2023-01-30T08:51:41.224Z,10.20
2023-01-30T08:52:43.235Z,10.30
2023-01-30T08:53:45.235Z,10.50
2023-01-30T08:54:47.355Z,10.60
2023-01-30T08:56:21.087Z,10.90
2023-01-30T08:57:23.137Z,11.00
2023-01-30T08:58:25.128Z,11.00
2023-01-30T08:59:27.264Z,11.00
2023-01-30T09:00:35.141Z,11.10
2023-01-30T09:01:38.440Z,11.20
2023-01-30T09:02:40.762Z,11.30
2023-01-30T09:03:43.069Z,11.20
2023-01-30T09:04:45.107Z,11.40
2023-01-30T09:05:47.263Z,11.50
2023-01-30T09:06:49.200Z,11.70
2023-01-30T09:07:51.476Z,11.80
2023-01-30T09:08:53.436Z,11.90
2023-01-30T09:09:55.974Z,12.00
2023-01-30T09:11:02.880Z,12.10
2023-01-30T09:12:05.247Z,12.30
2023-01-30T09:13:09.902Z,12.30
2023-01-30T09:14:11.813Z,12.30
2023-01-30T09:15:13.976Z,12.30
2023-01-30T09:16:16.273Z,12.10
2023-01-30T09:17:18.215Z,12.10
2023-01-30T09:18:20.583Z,12.20
2023-01-30T09:19:24.772Z,12.20
2023-01-30T09:20:26.800Z,12.40
2023-01-30T09:21:28.878Z,12.40
2023-01-30T09:22:30.830Z,12.40
2023-01-30T09:23:32.791Z,12.50
2023-01-30T09:24:34.848Z,12.60
2023-01-30T09:25:36.846Z,12.80
2023-01-30T09:26:40.454Z,12.90
2023-01-30T09:27:44.518Z,12.90
2023-01-30T09:28:46.488Z,13.00
2023-01-30T09:29:48.747Z,13.10
2023-01-30T09:30:50.839Z,13.20
2023-01-30T09:31:53.199Z,13.30
2023-01-30T09:32:55.180Z,13.40
2023-01-30T09:33:57.138Z,13.60
2023-01-30T09:34:59.083Z,13.80
2023-01-30T09:36:01.181Z,14.10
2023-01-30T09:37:05.129Z,14.10
2023-01-30T09:38:07.267Z,14.10
2023-01-30T09:39:09.236Z,14.10
2023-01-30T09:40:17.579Z,14.10
2023-01-30T09:41:38.347Z,14.10
2023-01-30T09:42:54.930Z,14.10
2023-01-30T09:44:08.745Z,14.10
2023-01-30T09:45:45.754Z,14.10
2023-01-30T09:46:57.069Z,14.10
2023-01-30T09:48:29.466Z,14.00
2023-01-30T09:50:13.431Z,13.90
2023-01-30T09:51:21.608Z,14.00
2023-01-30T09:53:00.516Z,13.90
2023-01-30T09:54:24.299Z,14.00
2023-01-30T09:55:29.864Z,13.80
2023-01-30T09:56:31.988Z,13.90
2023-01-30T09:57:35.916Z,14.00
2023-01-30T09:58:55.788Z,14.10
2023-01-30T10:00:12.831Z,14.20
2023-01-30T10:01:58.225Z,14.30
2023-01-30T10:03:10.393Z,14.50
2023-01-30T10:04:24.826Z,14.40
2023-01-30T10:05:37.099Z,14.30
2023-01-30T10:06:51.802Z,14.30
2023-01-30T10:08:01.136Z,14.40
2023-01-30T10:09:11.117Z,14.40
2023-01-30T10:10:21.715Z,14.50
2023-01-30T10:11:42.499Z,14.50
2023-01-30T10:13:21.378Z,14.60
2023-01-30T10:14:36.223Z,14.50
2023-01-30T10:16:05.520Z,14.50
2023-01-30T10:17:45.870Z,14.50
2023-01-30T10:19:11.489Z,14.60
2023-01-30T10:20:31.754Z,14.60
2023-01-30T10:21:50.207Z,14.70
2023-01-30T10:23:16.421Z,14.80
2023-01-30T10:24:21.452Z,14.80
2023-01-30T10:25:27.823Z,14.70
2023-01-30T10:26:31.801Z,14.40
2023-01-30T10:27:35.550Z,14.50
2023-01-30T10:29:06.759Z,14.50
2023-01-30T10:30:15.279Z,14.50
2023-01-30T10:31:20.120Z,14.60
2023-01-30T10:32:30.371Z,14.80
2023-01-30T10:33:36.811Z,15.00
2023-01-30T10:34:42.360Z,15.10
2023-01-30T10:35:44.800Z,15.30
2023-01-30T10:36:57.854Z,15.40
2023-01-30T10:38:15.756Z,15.50
2023-01-30T10:39:55.193Z,15.50
2023-01-30T10:41:01.724Z,15.60
2023-01-30T10:42:12.523Z,15.90
2023-01-30T10:43:26.028Z,15.90
2023-01-30T10:44:28.117Z,15.90
2023-01-30T10:45:52.865Z,15.70
2023-01-30T10:47:47.067Z,15.70
2023-01-30T10:49:01.607Z,15.70
2023-01-30T10:50:15.778Z,15.80
2023-01-30T10:51:56.019Z,15.90
2023-01-30T10:53:21.006Z,16.10
2023-01-30T10:54:28.561Z,16.10
2023-01-30T10:55:37.199Z,16.20
2023-01-30T10:57:39.225Z,16.10
2023-01-30T10:59:17.323Z,16.30
2023-01-30T11:00:57.779Z,16.40
2023-01-30T11:02:15.108Z,16.40
2023-01-30T11:03:55.787Z,16.60
2023-01-30T11:04:59.437Z,16.70
2023-01-30T11:06:06.657Z,16.40
2023-01-30T11:07:09.016Z,16.40
2023-01-30T11:08:29.413Z,16.40
2023-01-30T11:09:46.839Z,16.30
2023-01-30T11:10:49.594Z,16.50
2023-01-30T11:11:54.003Z,16.50
2023-01-30T11:13:10.152Z,16.50
2023-01-30T11:14:13.024Z,16.60
2023-01-30T11:15:16.213Z,16.40
2023-01-30T11:16:18.698Z,16.40
2023-01-30T11:17:28.237Z,16.30
2023-01-30T11:19:57.871Z,16.10
2023-01-30T11:21:10.375Z,16.00
2023-01-30T11:22:15.445Z,16.00
2023-01-30T11:23:35.572Z,16.10
2023-01-30T11:24:44.122Z,16.50
2023-01-30T11:26:02.174Z,16.60
2023-01-30T11:27:24.280Z,16.60
2023-01-30T11:28:27.224Z,16.60
2023-01-30T11:29:30.586Z,16.50
2023-01-30T11:30:37.105Z,16.40
2023-01-30T11:31:41.893Z,16.40
2023-01-30T11:32:47.567Z,16.40
2023-01-30T11:34:17.468Z,16.40
2023-01-30T11:35:30.004Z,16.10
2023-01-30T11:36:34.337Z,16.20
2023-01-30T11:37:37.510Z,16.20
2023-01-30T11:38:57.215Z,16.20
2023-01-30T11:39:59.217Z,16.30
2023-01-30T11:41:26.774Z,16.40
2023-01-30T11:42:32.414Z,16.50
2023-01-30T11:43:39.577Z,16.60
2023-01-30T11:44:42.591Z,16.50
2023-01-30T11:45:48.493Z,16.40
2023-01-30T11:46:50.710Z,16.30
2023-01-30T11:48:04.731Z,16.20
2023-01-30T11:49:46.968Z,16.10
2023-01-30T11:50:44.917Z,16.10
2023-01-30T11:51:54.561Z,16.00
2023-01-30T11:53:05.111Z,15.60
2023-01-30T11:54:13.539Z,15.70
2023-01-30T11:55:18.506Z,15.70
2023-01-30T11:56:49.700Z,15.70
2023-01-30T11:57:58.640Z,15.70
2023-01-30T11:59:08.111Z,15.90
2023-01-30T12:00:21.352Z,15.90
2023-01-30T12:01:28.022Z,15.90
2023-01-30T12:02:33.129Z,15.90
2023-01-30T12:03:45.515Z,15.90
2023-01-30T12:04:53.912Z,15.70
2023-01-30T12:05:58.407Z,15.50
2023-01-30T12:07:23.087Z,15.40
2023-01-30T12:08:41.927Z,15.40
2023-01-30T12:09:44.646Z,15.30
2023-01-30T12:10:55.149Z,15.20
2023-01-30T12:11:57.092Z,15.30
2023-01-30T12:13:11.871Z,15.30
2023-01-30T12:14:22.396Z,15.40
2023-01-30T12:15:33.066Z,15.30
2023-01-30T12:16:46.840Z,15.10
2023-01-30T12:18:20.974Z,15.10
2023-01-30T12:19:59.670Z,15.10
2023-01-30T12:21:06.773Z,14.90
2023-01-30T12:22:50.160Z,15.00
2023-01-30T12:24:16.841Z,15.10
2023-01-30T12:25:25.251Z,15.10
2023-01-30T12:26:32.935Z,15.10
2023-01-30T12:27:49.956Z,15.10
2023-01-30T12:29:13.459Z,15.00
2023-01-30T12:30:46.969Z,15.00
2023-01-30T12:32:04.198Z,15.00
2023-01-30T12:33:10.796Z,15.00
2023-01-30T12:34:12.936Z,15.10
2023-01-30T12:35:17.868Z,15.00
2023-01-30T12:36:25.679Z,15.10
2023-01-30T12:37:36.780Z,15.00
2023-01-30T12:39:01.911Z,15.10
2023-01-30T12:40:37.719Z,15.00
2023-01-30T12:41:45.987Z,15.00
2023-01-30T12:43:09.978Z,15.00
2023-01-30T12:44:45.631Z,15.00
2023-01-30T12:46:04.666Z,15.00
2023-01-30T12:47:35.140Z,15.00
2023-01-30T12:50:34.127Z,14.90
2023-01-30T12:51:38.839Z,15.00
2023-01-30T12:52:40.926Z,14.90
2023-01-30T12:54:00.975Z,14.90
2023-01-30T12:55:08.748Z,14.90
2023-01-30T12:56:32.077Z,14.80
2023-01-30T12:57:53.825Z,15.00
2023-01-30T12:59:10.986Z,14.90
2023-01-30T13:00:36.014Z,15.10
2023-01-30T13:02:47.615Z,15.10
2023-01-30T13:04:05.195Z,15.10
2023-01-30T13:05:25.902Z,15.10
2023-01-30T13:06:46.979Z,15.20
2023-01-30T13:08:33.670Z,15.20
2023-01-30T13:09:42.578Z,15.10
2023-01-30T13:10:56.848Z,15.10
2023-01-30T13:12:04.885Z,14.80
2023-01-30T13:13:15.791Z,14.80
2023-01-30T13:14:45.150Z,14.80
2023-01-30T13:16:08.927Z,14.70
2023-01-30T13:17:26.957Z,14.70
2023-01-30T13:18:54.029Z,14.70
2023-01-30T13:20:15.348Z,14.60
2023-01-30T13:21:46.947Z,14.60
2023-01-30T13:22:58.468Z,14.60
2023-01-30T13:24:05.981Z,14.60
2023-01-30T13:25:19.988Z,14.40
2023-01-30T13:26:27.216Z,14.50
2023-01-30T13:27:33.763Z,14.60
2023-01-30T13:28:49.985Z,14.60
2023-01-30T13:29:53.775Z,14.60
2023-01-30T13:30:56.617Z,14.50
2023-01-30T13:32:01.488Z,14.60
2023-01-30T13:33:18.859Z,14.60
2023-01-30T13:34:40.657Z,14.70
2023-01-30T13:35:57.874Z,14.70
2023-01-30T13:37:04.854Z,14.70
2023-01-30T13:38:10.521Z,14.60
2023-01-30T13:39:33.723Z,14.40
2023-01-30T13:40:44.179Z,14.40
2023-01-30T13:41:52.931Z,14.40
2023-01-30T13:43:12.134Z,14.50
2023-01-30T13:44:21.216Z,14.40
2023-01-30T13:45:35.168Z,14.30
2023-01-30T13:46:39.137Z,14.20
2023-01-30T13:48:03.720Z,14.30
2023-01-30T13:49:08.681Z,14.30
2023-01-30T13:51:07.257Z,14.20
2023-01-30T13:52:27.583Z,14.10
2023-01-30T13:53:51.964Z,14.20
2023-01-30T13:55:43.496Z,14.20
2023-01-30T13:57:05.654Z,13.90
2023-01-30T13:58:43.985Z,14.10
2023-01-30T14:00:03.867Z,14.10
2023-01-30T14:01:14.435Z,14.10
2023-01-30T14:02:26.096Z,14.00
2023-01-30T14:03:33.105Z,14.00
2023-01-30T14:04:41.290Z,14.00
2023-01-30T14:05:52.806Z,13.90
2023-01-30T14:06:54.849Z,13.80
2023-01-30T14:07:56.864Z,13.80
2023-01-30T14:09:01.431Z,13.80
2023-01-30T14:10:06.142Z,13.80
2023-01-30T14:11:34.207Z,13.80
2023-01-30T14:12:45.917Z,13.90
2023-01-30T14:13:53.670Z,13.90
2023-01-30T14:15:24.444Z,13.90
2023-01-30T14:16:44.648Z,13.90
2023-01-30T14:17:59.246Z,13.90
2023-01-30T14:19:39.901Z,13.90
2023-01-30T14:20:46.352Z,13.80
2023-01-30T14:21:59.680Z,13.70
2023-01-30T14:23:05.519Z,13.70
2023-01-30T14:24:21.987Z,13.70
2023-01-30T14:25:29.966Z,13.70
2023-01-30T14:26:50.559Z,13.60
2023-01-30T14:28:19.738Z,13.50
2023-01-30T14:29:42.858Z,13.50
2023-01-30T14:30:44.755Z,13.40
2023-01-30T14:31:49.967Z,13.30
2023-01-30T14:32:55.024Z,13.20
2023-01-30T14:33:57.030Z,13.20
2023-01-30T14:35:01.767Z,13.10
2023-01-30T14:36:03.698Z,13.10
2023-01-30T14:37:26.737Z,13.10
2023-01-30T14:38:30.589Z,13.10
2023-01-30T14:39:54.235Z,13.10
2023-01-30T14:41:02.033Z,13.10
2023-01-30T14:42:26.774Z,13.10
2023-01-30T14:43:39.325Z,13.20
2023-01-30T14:44:59.385Z,13.20
2023-01-30T14:46:07.500Z,13.30
2023-01-30T14:47:32.356Z,13.20
2023-01-30T14:48:44.784Z,13.20
2023-01-30T14:49:47.674Z,13.30
2023-01-30T14:50:49.712Z,13.20
2023-01-30T14:51:53.667Z,13.20
2023-01-30T14:52:56.872Z,13.10
2023-01-30T14:54:03.700Z,13.00
2023-01-30T14:55:15.733Z,13.00
2023-01-30T14:56:19.322Z,12.80
2023-01-30T14:58:18.410Z,12.70
2023-01-30T14:59:37.125Z,12.50
2023-01-30T15:00:39.674Z,12.20
2023-01-30T15:01:57.035Z,12.20
2023-01-30T15:03:07.981Z,12.10
2023-01-30T15:04:15.681Z,11.90
2023-01-30T15:05:31.826Z,11.80
2023-01-30T15:07:37.686Z,11.80
2023-01-30T15:08:43.356Z,11.80
2023-01-30T15:09:56.011Z,11.80
2023-01-30T15:12:08.570Z,11.80
2023-01-30T15:13:28.628Z,11.80
2023-01-30T15:14:46.665Z,11.90
2023-01-30T15:18:08.725Z,11.80
2023-01-30T15:19:23.920Z,11.60
2023-01-30T15:21:02.664Z,11.50
2023-01-30T15:22:13.366Z,11.30
2023-01-30T15:23:26.737Z,11.20
2023-01-30T15:24:53.372Z,11.00
2023-01-30T15:26:26.476Z,11.00
2023-01-30T15:27:52.883Z,10.80
2023-01-30T15:29:09.961Z,10.70
2023-01-30T15:30:17.284Z,10.70
2023-01-30T15:31:23.809Z,10.60
2023-01-30T15:32:28.667Z,10.50
2023-01-30T15:33:32.291Z,10.50
2023-01-30T15:34:34.689Z,10.40
2023-01-30T15:35:36.692Z,10.40
2023-01-30T15:36:39.040Z,10.30
2023-01-30T15:37:47.987Z,10.30
2023-01-30T15:39:16.386Z,10.30
2023-01-30T15:40:21.838Z,10.20
2023-01-30T15:41:24.399Z,10.10
2023-01-30T15:42:26.587Z,10.10
2023-01-30T15:43:43.247Z,10.10
2023-01-30T15:45:03.618Z,10.00
2023-01-30T15:46:20.005Z,10.00
2023-01-30T15:47:43.209Z,9.90
2023-01-30T15:49:02.030Z,9.90
2023-01-30T15:50:08.662Z,9.90
2023-01-30T15:51:17.113Z,9.80
2023-01-30T15:52:21.590Z,9.80
2023-01-30T15:53:37.476Z,9.70
2023-01-30T15:54:39.523Z,9.70
2023-01-30T15:55:43.477Z,9.70
2023-01-30T15:56:49.729Z,9.60
2023-01-30T15:57:59.463Z,9.60
2023-01-30T15:59:02.504Z,9.60
2023-01-30T16:00:07.622Z,9.60
2023-01-30T16:01:20.465Z,9.60
2023-01-30T16:02:34.769Z,9.50
2023-01-30T16:03:41.032Z,9.50
2023-01-30T16:04:43.052Z,9.40
2023-01-30T16:05:55.301Z,9.40
2023-01-30T16:06:58.277Z,9.30
2023-01-30T16:08:18.665Z,9.30
2023-01-30T16:09:23.417Z,9.20
2023-01-30T16:10:30.683Z,9.20
2023-01-30T16:11:43.083Z,9.10
2023-01-30T16:12:45.657Z,9.10
2023-01-30T16:13:47.718Z,9.00
2023-01-30T16:14:49.778Z,9.00
2023-01-30T16:16:01.068Z,9.00
2023-01-30T16:17:06.719Z,9.00
2023-01-30T16:18:31.742Z,8.90
2023-01-30T16:19:35.951Z,8.90
2023-01-30T16:21:00.592Z,8.90
2023-01-30T16:22:07.216Z,8.90